createdAt,value
2023-02-23T00:01:47.744Z,33.88
2023-02-23T00:04:21.280Z,32.58
2023-02-23T00:06:52.255Z,31.73
2023-02-23T00:09:25.448Z,35.92
2023-02-23T00:11:57.417Z,34.63
2023-02-23T00:14:31.214Z,35.10
2023-02-23T00:17:01.333Z,33.33
2023-02-23T00:19:37.874Z,36.45
2023-02-23T00:22:07.785Z,35.72
2023-02-23T00:24:38.649Z,38.00
2023-02-23T00:27:08.686Z,40.15
2023-02-23T00:29:39.501Z,40.28
2023-02-23T00:32:09.909Z,39.97
2023-02-23T00:34:42.448Z,30.42
2023-02-23T00:37:12.369Z,37.00
2023-02-23T00:39:42.230Z,34.70
2023-02-23T00:42:13.681Z,31.77
2023-02-23T00:44:43.549Z,37.00
2023-02-23T00:47:13.386Z,33.88
2023-02-23T00:49:47.068Z,38.40
2023-02-23T00:52:19.780Z,36.17
2023-02-23T00:54:49.845Z,37.08
2023-02-23T00:57:19.679Z,46.28
2023-02-23T00:59:49.537Z,35.75
2023-02-23T01:02:19.408Z,35.60
2023-02-23T01:04:52.040Z,32.22
2023-02-23T01:07:25.651Z,34.83
2023-02-23T01:09:55.663Z,34.05
2023-02-23T01:12:25.574Z,39.33
2023-02-23T01:14:55.726Z,38.90
2023-02-23T01:17:25.600Z,38.60
2023-02-23T01:19:58.374Z,38.35
2023-02-23T01:22:28.286Z,33.50
2023-02-23T01:24:58.322Z,35.40
2023-02-23T01:27:29.306Z,37.58
2023-02-23T01:29:59.162Z,35.63
2023-02-23T01:32:29.115Z,44.88
2023-02-23T01:35:01.644Z,35.78
2023-02-23T01:37:31.524Z,33.13
2023-02-23T01:40:01.378Z,38.53
2023-02-23T01:42:34.122Z,36.40
2023-02-23T01:45:25.920Z,41.13
2023-02-23T01:48:01.780Z,32.25
2023-02-23T01:50:45.624Z,36.55
2023-02-23T01:53:15.970Z,39.88
2023-02-23T01:55:46.729Z,39.50
2023-02-23T01:58:21.734Z,38.90
2023-02-23T02:00:56.300Z,36.00
2023-02-23T02:06:04.680Z,37.30
2023-02-23T02:11:26.156Z,35.00
2023-02-23T02:14:00.224Z,41.42
2023-02-23T02:16:45.267Z,38.13
2023-02-23T02:23:01.203Z,45.90
2023-02-23T02:25:49.250Z,39.17
2023-02-23T02:28:45.384Z,36.55
2023-02-23T02:32:01.137Z,48.97
2023-02-23T02:35:00.102Z,39.42
2023-02-23T02:37:56.682Z,37.42
2023-02-23T02:40:34.293Z,38.08
2023-02-23T02:43:11.916Z,40.33
2023-02-23T02:45:53.442Z,40.75
2023-02-23T02:48:34.908Z,34.20
2023-02-23T02:51:17.590Z,34.25
2023-02-23T02:54:00.257Z,39.90
2023-02-23T02:56:33.518Z,42.95
2023-02-23T02:59:03.680Z,41.92
2023-02-23T03:01:46.577Z,36.03
2023-02-23T03:04:38.175Z,40.20
2023-02-23T03:07:31.760Z,36.67
2023-02-23T03:10:24.209Z,38.42
2023-02-23T03:13:21.706Z,39.28
2023-02-23T03:16:15.868Z,38.63
2023-02-23T03:19:23.046Z,38.58
2023-02-23T03:22:10.002Z,32.83
2023-02-23T03:24:59.408Z,32.10
2023-02-23T03:27:59.916Z,40.97
2023-02-23T03:30:53.015Z,38.72
2023-02-23T03:33:46.157Z,37.60
2023-02-23T03:36:35.003Z,38.60
2023-02-23T03:39:29.009Z,36.60
2023-02-23T03:42:13.614Z,40.25
2023-02-23T03:45:01.261Z,41.88
2023-02-23T03:47:49.433Z,33.25
2023-02-23T03:50:38.417Z,40.58
2023-02-23T03:53:22.217Z,41.63
2023-02-23T03:56:11.000Z,38.38
2023-02-23T03:59:00.302Z,38.75
2023-02-23T04:01:48.103Z,36.00
2023-02-23T04:04:30.599Z,36.00
2023-02-23T04:07:16.616Z,41.13
2023-02-23T04:09:59.378Z,42.28
2023-02-23T04:12:49.962Z,39.90
2023-02-23T04:15:25.464Z,39.40
2023-02-23T04:17:58.558Z,43.08
2023-02-23T04:20:30.244Z,44.63
2023-02-23T04:23:00.185Z,43.13
2023-02-23T04:25:30.123Z,36.53
2023-02-23T04:28:00.141Z,44.88
2023-02-23T04:30:30.455Z,40.53
2023-02-23T04:33:03.307Z,37.00
2023-02-23T04:35:33.322Z,46.67
2023-02-23T04:38:03.379Z,45.70
2023-02-23T04:40:33.557Z,41.97
2023-02-23T04:43:03.556Z,37.53
2023-02-23T04:45:33.469Z,44.70
2023-02-23T04:48:06.088Z,43.45
2023-02-23T04:50:36.089Z,42.50
2023-02-23T04:53:06.052Z,38.55
2023-02-23T04:55:36.040Z,41.80
2023-02-23T04:58:06.091Z,38.00
2023-02-23T05:00:36.027Z,42.00
2023-02-23T05:03:08.580Z,41.00
2023-02-23T05:05:38.640Z,40.90
2023-02-23T05:08:09.233Z,45.28
2023-02-23T05:10:40.443Z,46.63
2023-02-23T05:13:11.040Z,38.67
2023-02-23T05:15:40.927Z,48.22
2023-02-23T05:18:13.422Z,37.17
2023-02-23T05:20:47.712Z,40.53
2023-02-23T05:23:17.613Z,40.40
2023-02-23T05:25:47.530Z,39.85
2023-02-23T05:28:17.400Z,40.97
2023-02-23T05:30:47.328Z,42.42
2023-02-23T05:33:19.954Z,40.25
2023-02-23T05:35:49.802Z,41.45
2023-02-23T05:38:21.497Z,41.03
2023-02-23T05:40:51.773Z,45.78
2023-02-23T05:43:21.847Z,42.28
2023-02-23T05:45:51.752Z,43.10
2023-02-23T05:48:24.244Z,37.95
2023-02-23T05:50:54.113Z,41.70
2023-02-23T05:53:23.978Z,48.35
2023-02-23T05:55:53.846Z,41.58
2023-02-23T05:58:23.727Z,39.30
2023-02-23T06:00:54.070Z,40.85
2023-02-23T06:03:27.100Z,41.10
2023-02-23T06:05:59.642Z,40.08
2023-02-23T06:08:29.661Z,44.60
2023-02-23T06:10:59.553Z,49.17
2023-02-23T06:13:29.690Z,36.22
2023-02-23T06:15:59.724Z,37.58
2023-02-23T06:18:33.071Z,47.95
2023-02-23T06:21:04.217Z,43.45
2023-02-23T06:23:35.324Z,43.90
2023-02-23T06:26:05.284Z,38.10
2023-02-23T06:28:35.153Z,40.75
2023-02-23T06:31:05.149Z,34.28
2023-02-23T06:33:37.689Z,41.60
2023-02-23T06:36:08.658Z,40.85
2023-02-23T06:38:38.569Z,40.47
2023-02-23T06:41:12.143Z,44.35
2023-02-23T06:43:42.059Z,42.53
2023-02-23T06:46:11.945Z,42.45
2023-02-23T06:48:44.510Z,38.40
2023-02-23T06:51:14.411Z,41.17
2023-02-23T06:53:44.311Z,33.05
2023-02-23T06:56:14.370Z,38.30
2023-02-23T06:58:44.264Z,41.03
2023-02-23T07:01:14.737Z,36.38
2023-02-23T07:03:47.235Z,44.47
2023-02-23T07:06:17.136Z,38.92
2023-02-23T07:08:47.037Z,41.70
2023-02-23T07:11:19.778Z,45.38
2023-02-23T07:13:49.788Z,38.97
2023-02-23T07:16:19.666Z,37.38
2023-02-23T07:18:52.174Z,39.30
2023-02-23T07:21:22.055Z,40.03
2023-02-23T07:23:51.946Z,47.53
2023-02-23T07:26:21.855Z,42.42
2023-02-23T07:28:54.098Z,39.03
2023-02-23T07:31:24.125Z,43.05
2023-02-23T07:33:57.437Z,42.63
2023-02-23T07:36:27.716Z,41.22
2023-02-23T07:38:57.600Z,40.42
2023-02-23T07:41:27.476Z,40.10
2023-02-23T07:43:57.372Z,43.00
2023-02-23T07:46:27.453Z,42.53
2023-02-23T07:48:59.954Z,47.28
2023-02-23T07:51:29.804Z,39.38
2023-02-23T07:53:59.685Z,40.85
2023-02-23T07:56:29.707Z,50.22
2023-02-23T07:58:59.615Z,46.97
2023-02-23T08:01:29.573Z,40.33
2023-02-23T08:04:02.130Z,43.50
2023-02-23T08:06:33.403Z,39.35
2023-02-23T08:09:04.497Z,44.50
2023-02-23T08:11:34.901Z,42.05
2023-02-23T08:14:04.861Z,40.50
2023-02-23T08:16:36.356Z,38.08
2023-02-23T08:19:08.833Z,40.22
2023-02-23T08:21:39.382Z,41.95
2023-02-23T08:24:10.938Z,36.65
2023-02-23T08:26:40.879Z,40.85
2023-02-23T08:29:11.521Z,38.47
2023-02-23T08:31:41.570Z,42.20
2023-02-23T08:34:14.549Z,41.72
2023-02-23T08:36:45.788Z,44.72
2023-02-23T08:39:16.482Z,41.30
2023-02-23T08:41:46.379Z,41.47
2023-02-23T08:44:16.234Z,37.92
2023-02-23T08:46:46.715Z,48.50
2023-02-23T08:49:19.210Z,40.92
2023-02-23T08:51:50.283Z,39.42
2023-02-23T08:54:20.503Z,39.53
2023-02-23T08:56:50.442Z,37.28
2023-02-23T08:59:20.406Z,41.08
2023-02-23T09:01:50.356Z,37.30
2023-02-23T09:04:22.825Z,40.08
2023-02-23T09:06:52.786Z,39.72
2023-02-23T09:09:22.630Z,38.35
2023-02-23T09:11:52.496Z,40.58
2023-02-23T09:14:22.417Z,41.13
2023-02-23T09:16:52.287Z,38.38
2023-02-23T09:19:24.732Z,36.40
2023-02-23T09:21:54.625Z,40.25
2023-02-23T09:24:24.748Z,43.45
2023-02-23T09:26:54.636Z,39.55
2023-02-23T09:29:24.595Z,36.83
2023-02-23T09:31:58.321Z,37.83
2023-02-23T09:34:30.843Z,46.70
2023-02-23T09:37:00.881Z,37.20
2023-02-23T09:39:37.993Z,48.67
2023-02-23T09:42:28.785Z,36.45
2023-02-23T09:45:12.889Z,36.38
2023-02-23T09:47:59.692Z,39.65
2023-02-23T09:50:35.206Z,42.10
2023-02-23T09:53:07.987Z,37.47
2023-02-23T09:55:38.108Z,44.80
2023-02-23T09:58:12.228Z,41.28
2023-02-23T10:00:54.194Z,42.83
2023-02-23T10:03:31.616Z,37.20
2023-02-23T10:06:09.125Z,39.45
2023-02-23T10:08:53.011Z,39.60
2023-02-23T10:11:32.959Z,40.50
2023-02-23T10:14:24.115Z,41.95
2023-02-23T10:17:10.069Z,46.63
2023-02-23T10:19:48.004Z,37.80
2023-02-23T10:22:23.405Z,41.17
2023-02-23T10:24:58.941Z,39.60
2023-02-23T10:27:35.390Z,40.13
2023-02-23T10:30:06.577Z,41.70
2023-02-23T10:32:44.490Z,34.88
2023-02-23T10:35:17.693Z,35.45
2023-02-23T10:37:50.671Z,39.38
2023-02-23T10:40:24.437Z,42.40
2023-02-23T10:42:55.231Z,42.83
2023-02-23T10:45:27.527Z,42.03
2023-02-23T10:48:01.225Z,42.55
2023-02-23T10:50:31.969Z,43.08
2023-02-23T10:53:16.642Z,36.13
2023-02-23T10:55:48.472Z,37.63
2023-02-23T10:58:22.039Z,40.15
2023-02-23T11:00:57.644Z,39.85
2023-02-23T11:03:33.058Z,35.75
2023-02-23T11:06:03.085Z,36.42
2023-02-23T11:08:38.221Z,35.45
2023-02-23T11:11:20.774Z,36.63
2023-02-23T11:13:52.643Z,40.90
2023-02-23T11:16:25.599Z,39.85
2023-02-23T11:18:59.727Z,39.17
2023-02-23T11:21:33.671Z,42.72
2023-02-23T11:24:25.227Z,43.00
2023-02-23T11:26:58.027Z,39.00
2023-02-23T11:29:35.782Z,46.15
2023-02-23T11:32:13.542Z,37.85
2023-02-23T11:34:44.638Z,41.33
2023-02-23T11:37:24.157Z,39.17
2023-02-23T11:39:59.332Z,32.10
2023-02-23T11:42:33.565Z,36.45
2023-02-23T11:45:09.256Z,32.58
2023-02-23T11:47:44.847Z,38.90
2023-02-23T11:50:27.181Z,30.85
2023-02-23T11:53:04.683Z,40.20
2023-02-23T11:55:40.727Z,38.40
2023-02-23T11:58:14.207Z,32.20
2023-02-23T12:00:44.243Z,32.60
2023-02-23T12:03:25.977Z,30.13
2023-02-23T12:06:00.319Z,37.10
2023-02-23T12:08:40.497Z,36.75
2023-02-23T12:11:16.863Z,37.05
2023-02-23T12:13:52.058Z,45.70
2023-02-23T12:16:26.387Z,39.05
2023-02-23T12:19:02.483Z,37.67
2023-02-23T12:21:38.868Z,40.53
2023-02-23T12:24:22.738Z,33.08
2023-02-23T12:27:02.048Z,44.47
2023-02-23T12:29:40.406Z,35.35
2023-02-23T12:32:17.578Z,34.25
2023-02-23T12:34:55.357Z,28.85
2023-02-23T12:37:38.673Z,35.88
2023-02-23T12:40:18.873Z,37.03
2023-02-23T12:43:05.467Z,35.05
2023-02-23T12:45:44.816Z,38.90
2023-02-23T12:48:30.771Z,36.55
2023-02-23T12:51:04.069Z,37.67
2023-02-23T12:53:40.564Z,30.90
2023-02-23T12:56:28.881Z,41.38
2023-02-23T12:59:22.294Z,35.50
2023-02-23T13:01:58.667Z,36.25
2023-02-23T13:04:49.788Z,32.35
2023-02-23T13:07:26.994Z,31.83
2023-02-23T13:10:08.768Z,43.50
2023-02-23T13:12:55.574Z,39.53
2023-02-23T13:15:44.686Z,37.20
2023-02-23T13:18:22.272Z,33.85
2023-02-23T13:20:58.078Z,35.10
2023-02-23T13:23:35.293Z,31.60
2023-02-23T13:26:16.543Z,32.05
2023-02-23T13:28:56.907Z,41.42
2023-02-23T13:31:34.314Z,45.13
2023-02-23T13:34:07.330Z,36.78
2023-02-23T13:36:38.964Z,32.67
2023-02-23T13:39:45.215Z,43.63
2023-02-23T13:42:39.682Z,41.55
2023-02-23T13:45:37.754Z,38.73
2023-02-23T13:48:25.431Z,40.70
2023-02-23T13:51:01.947Z,36.47
2023-02-23T13:53:42.451Z,35.85
2023-02-23T13:56:14.355Z,37.70
2023-02-23T13:58:50.699Z,40.05
2023-02-23T14:01:24.543Z,34.92
2023-02-23T14:04:03.817Z,34.88
2023-02-23T14:06:36.460Z,28.40
2023-02-23T14:09:14.334Z,42.90
2023-02-23T14:11:51.437Z,35.20
2023-02-23T14:14:47.381Z,41.05
2023-02-23T14:17:42.244Z,36.83
2023-02-23T14:20:29.927Z,36.63
2023-02-23T14:23:29.894Z,37.95
2023-02-23T14:26:36.179Z,42.88
2023-02-23T14:29:31.968Z,33.95
2023-02-23T14:32:06.436Z,35.78
2023-02-23T14:34:54.101Z,34.55
2023-02-23T14:37:34.120Z,31.95
2023-02-23T14:40:13.462Z,37.33
2023-02-23T14:42:44.495Z,34.92
2023-02-23T14:45:27.319Z,30.77
2023-02-23T14:48:02.555Z,33.40
2023-02-23T14:50:35.415Z,34.58
2023-02-23T14:53:16.815Z,35.85
2023-02-23T14:55:46.724Z,30.08
2023-02-23T14:58:26.618Z,35.33
2023-02-23T15:00:56.601Z,42.58
2023-02-23T15:03:26.439Z,36.78
2023-02-23T15:06:00.357Z,43.75
2023-02-23T15:08:34.636Z,46.72
2023-02-23T15:11:07.462Z,36.97
2023-02-23T15:13:39.814Z,42.42
2023-02-23T15:16:15.742Z,35.78
2023-02-23T15:18:47.571Z,42.40
2023-02-23T15:21:23.233Z,38.78
2023-02-23T15:24:07.766Z,35.95
2023-02-23T15:26:40.655Z,41.53
2023-02-23T15:29:17.396Z,45.92
2023-02-23T15:31:52.995Z,48.13
2023-02-23T15:34:25.417Z,47.15
2023-02-23T15:37:01.037Z,55.10
2023-02-23T15:39:41.451Z,45.22
2023-02-23T15:42:17.429Z,50.47
2023-02-23T15:44:48.083Z,55.85
2023-02-23T15:47:28.466Z,47.25
2023-02-23T15:50:11.970Z,54.22
2023-02-23T15:52:49.573Z,51.53
2023-02-23T15:55:29.126Z,54.40
2023-02-23T15:58:01.560Z,59.00
2023-02-23T16:00:37.387Z,67.68
2023-02-23T16:03:09.849Z,58.10
2023-02-23T16:05:47.112Z,69.03
2023-02-23T16:08:24.098Z,68.70
2023-02-23T16:11:01.831Z,53.63
2023-02-23T16:13:31.821Z,67.03
2023-02-23T16:16:02.205Z,63.50
2023-02-23T16:18:42.432Z,59.70
2023-02-23T16:21:21.438Z,57.78
2023-02-23T16:23:54.167Z,59.30
2023-02-23T16:26:30.705Z,69.57
2023-02-23T16:29:03.530Z,66.40
2023-02-23T16:31:46.419Z,61.25
2023-02-23T16:34:27.878Z,68.72
2023-02-23T16:37:03.293Z,68.97
2023-02-23T16:39:34.994Z,70.13
2023-02-23T16:42:07.566Z,63.75
2023-02-23T16:44:43.536Z,76.45
2023-02-23T16:47:43.682Z,91.28
2023-02-23T16:50:20.199Z,83.72
2023-02-23T16:52:54.445Z,74.40
2023-02-23T16:55:28.213Z,75.10
2023-02-23T16:58:05.263Z,73.17
2023-02-23T17:00:36.710Z,78.65
2023-02-23T17:03:13.287Z,77.15
2023-02-23T17:05:43.504Z,72.13
2023-02-23T17:08:13.347Z,79.45
2023-02-23T17:10:45.629Z,73.72
2023-02-23T17:13:22.510Z,79.57
2023-02-23T17:15:56.503Z,78.80
2023-02-23T17:18:30.116Z,87.00
2023-02-23T17:21:03.389Z,76.93
2023-02-23T17:23:42.435Z,83.28
2023-02-23T17:26:14.668Z,83.25
2023-02-23T17:28:47.878Z,81.32
2023-02-23T17:31:22.864Z,87.10
2023-02-23T17:33:55.496Z,83.82
2023-02-23T17:36:27.470Z,85.80
2023-02-23T17:38:58.696Z,89.78
2023-02-23T17:41:29.245Z,87.32
2023-02-23T17:44:02.816Z,92.75
2023-02-23T17:46:32.751Z,89.05
2023-02-23T17:49:02.687Z,88.38
2023-02-23T17:51:32.845Z,90.32
2023-02-23T17:54:02.872Z,94.63
2023-02-23T17:56:33.061Z,88.25
2023-02-23T17:59:05.484Z,87.07
2023-02-23T18:01:35.448Z,90.72
2023-02-23T18:04:05.371Z,93.80
2023-02-23T18:06:35.313Z,93.55
2023-02-23T18:09:06.591Z,88.47
2023-02-23T18:11:37.006Z,97.88
2023-02-23T18:14:09.619Z,100.30
2023-02-23T18:16:39.491Z,104.82
2023-02-23T18:19:09.368Z,102.55
2023-02-23T18:21:40.889Z,101.90
2023-02-23T18:24:11.908Z,103.13
2023-02-23T18:26:41.847Z,105.72
2023-02-23T18:29:14.271Z,100.97
2023-02-23T18:31:44.363Z,96.53
2023-02-23T18:34:14.361Z,101.43
2023-02-23T18:36:45.482Z,104.28
2023-02-23T18:39:16.165Z,111.38
2023-02-23T18:41:46.329Z,108.13
2023-02-23T18:44:21.940Z,96.47
2023-02-23T18:46:53.045Z,99.10
2023-02-23T18:49:25.870Z,95.20
2023-02-23T18:51:55.903Z,100.05
2023-02-23T18:54:26.059Z,95.50
2023-02-23T18:56:56.134Z,95.13
2023-02-23T18:59:28.574Z,93.25
2023-02-23T19:01:58.451Z,100.80
2023-02-23T19:04:28.336Z,100.97
2023-02-23T19:06:58.232Z,89.30
2023-02-23T19:09:28.070Z,89.25
2023-02-23T19:11:58.334Z,94.43
2023-02-23T19:14:48.427Z,89.13
2023-02-23T19:17:19.329Z,90.25
2023-02-23T19:19:49.181Z,84.03
2023-02-23T19:22:19.679Z,90.40
2023-02-23T19:24:49.788Z,76.93
2023-02-23T19:27:20.353Z,85.72
2023-02-23T19:29:52.823Z,88.32
2023-02-23T19:32:22.874Z,86.07
2023-02-23T19:34:55.385Z,86.60
2023-02-23T19:37:25.233Z,82.28
2023-02-23T19:39:55.086Z,87.78
2023-02-23T19:42:24.962Z,84.07
2023-02-23T19:44:57.382Z,85.10
2023-02-23T19:47:27.286Z,82.78
2023-02-23T19:49:57.256Z,90.95
2023-02-23T19:52:28.866Z,79.15
2023-02-23T19:54:58.844Z,87.05
2023-02-23T19:57:28.881Z,85.35
2023-02-23T20:00:01.331Z,76.53
2023-02-23T20:02:31.312Z,72.97
2023-02-23T20:05:01.752Z,74.03
2023-02-23T20:07:31.635Z,75.45
2023-02-23T20:10:05.480Z,79.40
2023-02-23T20:12:35.804Z,64.57
2023-02-23T20:15:10.501Z,68.07
2023-02-23T20:20:13.895Z,65.95
2023-02-23T20:22:45.079Z,61.35
2023-02-23T20:25:16.540Z,61.45
2023-02-23T20:27:47.660Z,57.75
2023-02-23T20:30:21.620Z,56.50
2023-02-23T20:32:51.912Z,62.65
2023-02-23T20:35:26.375Z,55.92
2023-02-23T20:37:56.277Z,54.97
2023-02-23T20:40:27.440Z,49.92
2023-02-23T20:42:57.299Z,43.42
2023-02-23T20:45:29.782Z,49.90
2023-02-23T20:47:59.618Z,40.58
2023-02-23T20:50:34.018Z,39.65
2023-02-23T20:53:04.635Z,38.63
2023-02-23T20:55:35.756Z,43.80
2023-02-23T20:58:05.797Z,41.97
2023-02-23T21:00:38.434Z,42.88
2023-02-23T21:03:08.298Z,51.30
2023-02-23T21:05:42.992Z,57.72
2023-02-23T21:10:43.470Z,58.92
2023-02-23T21:13:13.859Z,64.72
2023-02-23T21:15:48.178Z,61.05
2023-02-23T21:18:18.068Z,62.90
2023-02-23T21:20:48.010Z,60.17
2023-02-23T21:23:20.392Z,68.93
2023-02-23T21:25:53.165Z,62.00
2023-02-23T21:28:23.541Z,64.68
2023-02-23T21:30:55.979Z,63.72
2023-02-23T21:33:25.836Z,66.47
2023-02-23T21:35:58.657Z,62.05
2023-02-23T21:38:29.223Z,67.25
2023-02-23T21:40:59.076Z,66.32
2023-02-23T21:43:29.239Z,65.63
2023-02-23T21:46:01.697Z,67.05
2023-02-23T21:48:31.611Z,63.38
2023-02-23T21:51:05.794Z,66.63
2023-02-23T21:53:37.536Z,73.13
2023-02-23T21:56:12.309Z,68.03
2023-02-23T22:01:23.496Z,65.22
2023-02-23T22:03:55.081Z,76.00
2023-02-23T22:06:28.004Z,74.93
2023-02-23T22:08:58.455Z,70.40
2023-02-23T22:11:30.905Z,76.57
2023-02-23T22:14:02.446Z,78.50
2023-02-23T22:16:38.407Z,78.40
2023-02-23T22:19:09.740Z,74.95
2023-02-23T22:21:44.400Z,89.65
2023-02-23T22:26:50.510Z,75.47
2023-02-23T22:29:20.509Z,74.82
2023-02-23T22:31:53.372Z,80.43
2023-02-23T22:34:23.388Z,81.28
2023-02-23T22:36:53.404Z,80.72
2023-02-23T22:39:23.258Z,75.90
2023-02-23T22:41:53.398Z,80.93
2023-02-23T22:44:24.389Z,85.63
2023-02-23T22:46:56.866Z,83.78
2023-02-23T22:49:27.025Z,83.55
2023-02-23T22:51:56.864Z,82.30
2023-02-23T22:54:26.790Z,85.03
2023-02-23T22:56:56.641Z,91.70
2023-02-23T22:59:28.565Z,83.88
2023-02-23T23:02:01.022Z,83.43
2023-02-23T23:04:33.055Z,85.82
2023-02-23T23:07:02.964Z,79.75
2023-02-23T23:09:33.167Z,90.68
2023-02-23T23:12:03.204Z,84.65
2023-02-23T23:14:33.209Z,85.45
2023-02-23T23:17:05.764Z,80.78
2023-02-23T23:19:39.143Z,80.07
2023-02-23T23:22:13.577Z,92.55
2023-02-23T23:24:46.283Z,81.43
2023-02-23T23:27:19.796Z,84.38
2023-02-23T23:29:50.702Z,92.70
2023-02-23T23:32:27.803Z,79.50
2023-02-23T23:34:59.908Z,77.53
2023-02-23T23:37:30.340Z,74.95
2023-02-23T23:40:02.157Z,80.70
2023-02-23T23:42:31.999Z,81.68
2023-02-23T23:45:02.067Z,73.30
2023-02-23T23:47:34.582Z,75.40
2023-02-23T23:50:10.817Z,76.35
2023-02-23T23:52:43.511Z,73.82
2023-02-23T23:55:15.181Z,79.15
2023-02-23T23:57:45.411Z,75.50
